Artie, WV (25008)

4:33 PM EST on December 05, 2016 (GMT -0500)
F.I.T. - Oyler Ave. | | Change Station

Elev 1988 ft 37.99 °N, 81.15 °W | Updated 0 second ago

Clear
Clear
44.3 °F
Feels Like 44 °F
N
0.0
Wind Variable Wind from WSW
Gusts 0.0 mph

Today
High -- | Low -- °F
--% Chance of Precip.
Yesterday
High -- | Low -- °F
Precip. -- in
Pressure 30.03 in
Visibility 10.0 miles
Clouds Clear
Windchill 44 °F
Dew Point 36 °F
Humidity 74%
Rainfall 0.00 in
Snow Depth Not available.
7:26 AM 5:05 PM
Waxing Crescent, 35% visible
METAR KBKW 052051Z AUTO 01003KT 10SM CLR 07/01 A3001 RMK AO2 SLP169 T00670006 55012
Pressure 30.03 in
Visibility 10.0 miles
Clouds Clear
Windchill 44 °F
Dew Point 36 °F
Humidity 74%
Rainfall 0.00 in
Snow Depth Not available.
7:26 AM 5:05 PM
Waxing Crescent, 35% visible
METAR KBKW 052051Z AUTO 01003KT 10SM CLR 07/01 A3001 RMK AO2 SLP169 T00670006 55012

10-Day Weather Forecast

Almanac

Astronomy

Dec. 05, 2016 Rise Set
Actual Time
Civil Twilight
Nautical Twilight
Astronomical Twilight
Moon
Length of Visible Light
Length of Day
Tomorrow will be .
, % of the Moon is Illuminated

Today's Extremes

State Highs State Lows

Community

WunderPhotos

Upload Photos

1,955,863 photos uploaded!

WunderBlog® & News

Nearby

Air Quality

  Air Quality AQ Index Pollutant
Not available.

Snow Depth

Station Depth Elevation

Earthquake Activity

City Distance Mag. Time & Date
Minimum magnitude displayed is 2.5.

Coastal Water Temperatures

Place Temperature

Stations

Nearby Weather Stations

Station Location Temp. Windchill Dew Point Humidity Wind Precip. Elev Updated Type
                   

Watches & Warnings

There are currently no watches in effect.